createdAt,value
2023-05-18T00:02:21.633Z,6.43
2023-05-18T00:04:51.101Z,6.13
2023-05-18T00:07:19.130Z,5.60
2023-05-18T00:09:47.283Z,5.20
2023-05-18T00:12:15.327Z,5.43
2023-05-18T00:14:43.318Z,5.90
2023-05-18T00:17:11.412Z,5.50
2023-05-18T00:19:40.752Z,5.90
2023-05-18T00:22:10.185Z,5.70
2023-05-18T00:24:38.189Z,5.90
2023-05-18T00:27:06.309Z,5.40
2023-05-18T00:29:34.335Z,5.77
2023-05-18T00:32:02.544Z,5.83
2023-05-18T00:34:30.892Z,5.03
2023-05-18T00:36:58.976Z,5.57
2023-05-18T00:39:28.438Z,5.20
2023-05-18T00:41:56.471Z,5.63
2023-05-18T00:44:24.526Z,5.30
2023-05-18T00:46:52.579Z,5.17
2023-05-18T00:49:20.623Z,5.53
2023-05-18T00:51:48.646Z,5.90
2023-05-18T00:54:16.764Z,5.77
2023-05-18T00:56:46.845Z,6.57
2023-05-18T00:59:15.557Z,4.43
2023-05-18T01:01:46.330Z,5.83
2023-05-18T01:04:15.242Z,5.13
2023-05-18T01:06:43.974Z,6.60
2023-05-18T01:09:13.573Z,4.97
2023-05-18T01:11:53.083Z,5.70
2023-05-18T01:14:29.902Z,6.33
2023-05-18T01:17:03.651Z,5.27
2023-05-18T01:19:45.554Z,5.57
2023-05-18T01:22:22.246Z,6.67
2023-05-18T01:24:53.434Z,4.97
2023-05-18T01:27:24.716Z,5.53
2023-05-18T01:29:52.925Z,5.83
2023-05-18T01:32:21.006Z,5.43
2023-05-18T01:34:49.203Z,5.43
2023-05-18T01:37:17.177Z,5.63
2023-05-18T01:39:45.221Z,6.43
2023-05-18T01:42:14.419Z,5.40
2023-05-18T01:44:46.698Z,6.30
2023-05-18T01:47:15.356Z,5.87
2023-05-18T01:49:45.166Z,5.97
2023-05-18T01:52:15.206Z,6.60
2023-05-18T01:54:44.470Z,7.60
2023-05-18T01:57:12.486Z,7.23
2023-05-18T01:59:41.493Z,7.10
2023-05-18T02:02:10.949Z,5.90
2023-05-18T02:04:38.968Z,6.63
2023-05-18T02:07:06.988Z,6.80
2023-05-18T02:09:34.983Z,6.00
2023-05-18T02:12:03.021Z,7.47
2023-05-18T02:14:31.152Z,7.13
2023-05-18T02:16:59.213Z,7.90
2023-05-18T02:19:31.003Z,8.20
2023-05-18T02:21:58.960Z,8.10
2023-05-18T02:24:27.243Z,7.00
2023-05-18T02:26:55.228Z,9.13
2023-05-18T02:29:23.281Z,7.13
2023-05-18T02:31:51.352Z,8.33
2023-05-18T02:34:19.825Z,7.77
2023-05-18T02:36:49.523Z,6.70
2023-05-18T02:39:17.519Z,8.43
2023-05-18T02:41:45.532Z,9.03
2023-05-18T02:44:13.586Z,8.20
2023-05-18T02:46:41.596Z,7.83
2023-05-18T02:49:09.611Z,7.43
2023-05-18T02:51:37.678Z,7.77
2023-05-18T02:54:07.162Z,6.73
2023-05-18T02:56:35.139Z,7.93
2023-05-18T02:59:04.018Z,8.20
2023-05-18T03:01:34.990Z,8.17
2023-05-18T03:04:03.141Z,8.40
2023-05-18T03:06:31.460Z,8.17
2023-05-18T03:08:59.926Z,7.93
2023-05-18T03:11:29.284Z,8.13
2023-05-18T03:13:57.334Z,8.57
2023-05-18T03:16:28.401Z,8.07
2023-05-18T03:18:59.101Z,8.23
2023-05-18T03:21:34.213Z,8.73
2023-05-18T03:24:02.290Z,7.67
2023-05-18T03:26:32.023Z,7.67
2023-05-18T03:29:01.321Z,7.50
2023-05-18T03:31:29.403Z,7.30
2023-05-18T03:33:57.436Z,8.37
2023-05-18T03:36:28.259Z,7.90
2023-05-18T03:38:56.426Z,8.77
2023-05-18T03:41:24.817Z,8.80
2023-05-18T03:43:54.227Z,7.90
2023-05-18T03:46:22.305Z,8.73
2023-05-18T03:48:50.641Z,9.07
2023-05-18T03:51:18.678Z,9.30
2023-05-18T03:53:47.137Z,9.47
2023-05-18T03:56:15.165Z,8.27
2023-05-18T03:58:44.530Z,7.77
2023-05-18T04:01:13.885Z,8.70
2023-05-18T04:03:42.751Z,9.20
2023-05-18T04:06:11.129Z,9.43
2023-05-18T04:08:40.576Z,8.43
2023-05-18T04:11:08.629Z,8.70
2023-05-18T04:13:39.153Z,7.97
2023-05-18T04:16:07.707Z,8.97
2023-05-18T04:18:37.597Z,7.80
2023-05-18T04:21:06.538Z,8.33
2023-05-18T04:23:39.124Z,9.57
2023-05-18T04:26:07.501Z,8.27
2023-05-18T04:28:37.753Z,8.87
2023-05-18T04:31:06.152Z,9.20
2023-05-18T04:33:34.190Z,12.20
2023-05-18T04:36:05.060Z,9.43
2023-05-18T04:38:34.633Z,12.13
2023-05-18T04:41:05.462Z,13.30
2023-05-18T04:43:33.536Z,11.60
2023-05-18T04:46:01.554Z,13.03
2023-05-18T04:48:29.652Z,11.43
2023-05-18T04:50:57.687Z,11.13
2023-05-18T04:53:27.557Z,10.03
2023-05-18T04:55:56.843Z,10.60
2023-05-18T04:58:24.887Z,12.10
2023-05-18T05:00:52.927Z,10.70
2023-05-18T05:03:21.067Z,9.60
2023-05-18T05:05:49.157Z,10.27
2023-05-18T05:08:17.295Z,9.77
2023-05-18T05:10:46.713Z,10.47
2023-05-18T05:13:14.722Z,8.87
2023-05-18T05:15:42.749Z,10.40
2023-05-18T05:18:11.121Z,8.33
2023-05-18T05:20:39.131Z,9.17
2023-05-18T05:23:07.215Z,10.10
2023-05-18T05:25:35.451Z,8.80
2023-05-18T05:28:05.135Z,7.50
2023-05-18T05:30:33.285Z,7.87
2023-05-18T05:33:01.294Z,8.07
2023-05-18T05:35:31.788Z,7.00
2023-05-18T05:38:01.308Z,8.20
2023-05-18T05:40:29.400Z,8.43
2023-05-18T05:42:57.422Z,8.60
2023-05-18T05:45:28.475Z,9.53
2023-05-18T05:47:56.665Z,9.23
2023-05-18T05:50:24.691Z,9.10
2023-05-18T05:52:52.696Z,7.30
2023-05-18T05:55:20.780Z,7.83
2023-05-18T05:57:48.789Z,6.53
2023-05-18T06:00:17.381Z,4.87
2023-05-18T06:02:46.821Z,5.00
2023-05-18T06:05:14.807Z,5.03
2023-05-18T06:07:42.828Z,4.97
2023-05-18T06:10:10.981Z,5.13
2023-05-18T06:12:38.989Z,6.43
2023-05-18T06:15:08.018Z,5.13
2023-05-18T06:17:36.077Z,5.10
2023-05-18T06:20:07.051Z,4.83
2023-05-18T06:22:35.100Z,4.80
2023-05-18T06:25:03.191Z,5.50
2023-05-18T06:27:32.009Z,4.40
2023-05-18T06:30:00.039Z,4.80
2023-05-18T06:32:28.214Z,4.53
2023-05-18T06:34:56.606Z,4.83
2023-05-18T06:37:25.990Z,4.87
2023-05-18T06:39:54.055Z,5.13
2023-05-18T06:42:22.110Z,5.70
2023-05-18T06:44:51.159Z,4.10
2023-05-18T06:47:19.170Z,5.20
2023-05-18T06:49:47.195Z,6.63
2023-05-18T06:52:15.481Z,4.43
2023-05-18T06:54:44.869Z,4.10
2023-05-18T06:57:13.165Z,5.10
2023-05-18T06:59:41.133Z,4.80
2023-05-18T07:02:09.140Z,6.03
2023-05-18T07:04:37.140Z,5.53
2023-05-18T07:07:05.226Z,5.30
2023-05-18T07:09:33.264Z,5.50
2023-05-18T07:12:02.666Z,6.37
2023-05-18T07:14:30.714Z,5.13
2023-05-18T07:16:58.704Z,5.70
2023-05-18T07:19:27.001Z,5.50
2023-05-18T07:21:56.892Z,7.87
2023-05-18T07:24:24.869Z,6.73
2023-05-18T07:26:52.854Z,7.17
2023-05-18T07:29:22.312Z,6.47
2023-05-18T07:31:50.333Z,6.03
2023-05-18T07:34:18.370Z,7.50
2023-05-18T07:36:46.407Z,6.67
2023-05-18T07:39:19.502Z,7.33
2023-05-18T07:41:48.561Z,6.70
2023-05-18T07:44:16.606Z,6.97
2023-05-18T07:46:46.058Z,6.37
2023-05-18T07:49:14.152Z,6.30
2023-05-18T07:51:42.896Z,6.80
2023-05-18T07:54:10.944Z,6.70
2023-05-18T07:56:39.367Z,6.07
2023-05-18T07:59:07.441Z,6.30
2023-05-18T08:01:35.747Z,6.40
2023-05-18T08:04:05.398Z,6.87
2023-05-18T08:06:33.577Z,7.23
2023-05-18T08:09:01.604Z,7.63
2023-05-18T08:11:29.659Z,6.87
2023-05-18T08:13:57.678Z,6.57
2023-05-18T08:16:25.828Z,7.40
2023-05-18T08:18:53.908Z,7.27
2023-05-18T08:21:23.296Z,7.60
2023-05-18T08:23:51.289Z,6.53
2023-05-18T08:26:19.402Z,6.93
2023-05-18T08:28:48.887Z,6.00
2023-05-18T08:31:17.054Z,5.30
2023-05-18T08:33:45.342Z,6.47
2023-05-18T08:36:13.486Z,6.20
2023-05-18T08:38:42.876Z,6.20
2023-05-18T08:41:15.047Z,7.20
2023-05-18T08:43:43.924Z,6.73
2023-05-18T08:46:14.829Z,7.40
2023-05-18T08:48:43.862Z,6.90
2023-05-18T08:51:11.998Z,6.10
2023-05-18T08:53:40.004Z,7.83
2023-05-18T08:56:09.510Z,7.43
2023-05-18T08:58:48.516Z,5.70
2023-05-18T09:01:16.541Z,7.00
2023-05-18T09:03:44.555Z,7.40
2023-05-18T09:06:12.646Z,7.23
2023-05-18T09:08:41.429Z,7.80
2023-05-18T09:11:10.946Z,6.07
2023-05-18T09:13:38.942Z,6.13
2023-05-18T09:16:08.066Z,5.53
2023-05-18T09:18:36.150Z,5.93
2023-05-18T09:21:04.288Z,6.97
2023-05-18T09:23:32.343Z,6.10
2023-05-18T09:26:00.319Z,5.27
2023-05-18T09:28:34.016Z,4.60
2023-05-18T09:31:02.072Z,4.40
2023-05-18T09:33:34.195Z,3.63
2023-05-18T09:36:02.330Z,5.00
2023-05-18T09:38:30.367Z,4.23
2023-05-18T09:40:58.412Z,4.20
2023-05-18T09:43:26.426Z,3.80
2023-05-18T09:45:55.809Z,4.90
2023-05-18T09:48:25.489Z,4.30
2023-05-18T09:50:54.796Z,3.50
2023-05-18T09:53:22.840Z,4.33
2023-05-18T09:55:51.010Z,3.73
2023-05-18T09:58:19.070Z,3.47
2023-05-18T10:00:51.853Z,3.20
2023-05-18T10:03:22.680Z,2.93
2023-05-18T10:05:50.716Z,2.97
2023-05-18T10:08:18.809Z,3.00
2023-05-18T10:10:47.797Z,2.53
2023-05-18T10:13:19.064Z,2.77
2023-05-18T10:15:51.044Z,2.60
2023-05-18T10:18:23.079Z,3.30
2023-05-18T10:20:51.732Z,2.73
2023-05-18T10:23:20.355Z,2.73
2023-05-18T10:25:49.622Z,3.10
2023-05-18T10:28:24.527Z,2.93
2023-05-18T10:30:53.413Z,3.67
2023-05-18T10:33:29.010Z,3.37
2023-05-18T10:35:58.255Z,3.60
2023-05-18T10:38:26.978Z,3.20
2023-05-18T10:40:56.596Z,2.97
2023-05-18T10:43:27.509Z,4.70
2023-05-18T10:45:56.359Z,3.30
2023-05-18T10:48:26.109Z,3.77
2023-05-18T10:50:55.190Z,3.43
2023-05-18T10:53:24.204Z,3.67
2023-05-18T10:55:52.261Z,3.30
2023-05-18T10:58:20.859Z,4.00
2023-05-18T11:00:51.408Z,4.07
2023-05-18T11:03:19.989Z,4.40
2023-05-18T11:05:52.575Z,3.30
2023-05-18T11:08:26.769Z,3.03
2023-05-18T11:11:01.445Z,4.33
2023-05-18T11:13:30.285Z,4.17
2023-05-18T11:16:06.645Z,4.03
2023-05-18T11:18:43.217Z,3.63
2023-05-18T11:21:49.222Z,3.77
2023-05-18T11:24:19.857Z,2.87
2023-05-18T11:26:49.796Z,3.10
2023-05-18T11:29:18.795Z,3.03
2023-05-18T11:31:46.945Z,2.40
2023-05-18T11:34:39.661Z,2.60
2023-05-18T11:37:10.128Z,2.00
2023-05-18T11:39:47.954Z,2.37
2023-05-18T11:42:20.501Z,2.20
2023-05-18T11:44:53.318Z,2.57
2023-05-18T11:47:21.291Z,2.33
2023-05-18T11:49:49.724Z,2.30
2023-05-18T11:52:20.109Z,2.00
2023-05-18T11:54:50.333Z,1.90
2023-05-18T11:57:18.938Z,2.20
2023-05-18T11:59:47.488Z,2.50
2023-05-18T12:02:22.289Z,2.67
2023-05-18T12:04:51.760Z,2.90
2023-05-18T12:07:21.188Z,3.47
2023-05-18T12:09:49.270Z,3.17
2023-05-18T12:12:20.244Z,3.23
2023-05-18T12:14:55.981Z,3.07
2023-05-18T12:17:24.605Z,2.90
2023-05-18T12:19:52.664Z,3.07
2023-05-18T12:22:22.038Z,3.00
2023-05-18T12:24:52.651Z,2.93
2023-05-18T12:27:22.983Z,3.00
2023-05-18T12:29:51.180Z,4.20
2023-05-18T12:32:19.225Z,2.93
2023-05-18T12:34:47.173Z,3.07
2023-05-18T12:37:15.529Z,2.27
2023-05-18T12:39:44.911Z,2.47
2023-05-18T12:42:13.783Z,2.10
2023-05-18T12:44:43.801Z,2.00
2023-05-18T12:47:12.324Z,2.20
2023-05-18T12:49:40.819Z,1.40
2023-05-18T12:52:12.895Z,1.90
2023-05-18T12:54:55.375Z,1.80
2023-05-18T12:57:26.959Z,2.20
2023-05-18T12:59:55.195Z,2.40
2023-05-18T13:02:31.968Z,1.90
2023-05-18T13:05:04.209Z,2.30
2023-05-18T13:07:32.232Z,1.93
2023-05-18T13:10:08.013Z,2.23
2023-05-18T13:12:46.181Z,2.70
2023-05-18T13:15:15.825Z,2.20
2023-05-18T13:17:59.810Z,2.40
2023-05-18T13:20:33.332Z,2.13
2023-05-18T13:23:06.496Z,2.37
2023-05-18T13:25:35.871Z,2.10
2023-05-18T13:28:03.893Z,2.53
2023-05-18T13:30:32.438Z,2.40
2023-05-18T13:33:00.638Z,2.67
2023-05-18T13:35:28.818Z,2.93
2023-05-18T13:37:56.842Z,2.70
2023-05-18T13:40:25.849Z,2.90
2023-05-18T13:42:55.296Z,2.73
2023-05-18T13:45:23.552Z,2.50
2023-05-18T13:47:52.181Z,3.73
2023-05-18T13:50:20.552Z,2.90
2023-05-18T13:52:48.653Z,3.03
2023-05-18T13:55:16.630Z,2.97
2023-05-18T13:57:44.687Z,2.33
2023-05-18T14:00:16.084Z,2.07
2023-05-18T14:02:44.269Z,2.73
2023-05-18T14:05:12.332Z,2.70
2023-05-18T14:07:41.097Z,3.20
2023-05-18T14:10:10.090Z,2.30
2023-05-18T14:12:38.172Z,2.33
2023-05-18T14:15:06.826Z,2.60
2023-05-18T14:17:36.308Z,2.87
2023-05-18T14:20:05.574Z,2.30
2023-05-18T14:22:33.824Z,2.40
2023-05-18T14:25:02.005Z,3.10
2023-05-18T14:27:30.107Z,2.97
2023-05-18T14:29:58.424Z,2.90
2023-05-18T14:32:26.440Z,2.73
2023-05-18T14:34:58.108Z,2.90
2023-05-18T14:37:26.302Z,3.30
2023-05-18T14:39:54.299Z,3.30
2023-05-18T14:42:22.312Z,3.00
2023-05-18T14:44:50.251Z,3.60
2023-05-18T14:47:18.324Z,2.40
2023-05-18T14:49:46.340Z,2.23
2023-05-18T14:52:15.689Z,2.70
2023-05-18T14:54:43.742Z,2.70
2023-05-18T14:57:11.731Z,2.13
2023-05-18T14:59:39.767Z,2.57
2023-05-18T15:02:08.382Z,2.30
2023-05-18T15:04:36.498Z,2.43
2023-05-18T15:07:04.751Z,1.87
2023-05-18T15:09:34.107Z,2.30
2023-05-18T15:12:02.135Z,2.37
2023-05-18T15:14:30.055Z,1.97
2023-05-18T15:16:58.706Z,2.30
2023-05-18T15:19:26.993Z,1.63
2023-05-18T15:21:55.066Z,2.20
2023-05-18T15:24:23.017Z,1.87
2023-05-18T15:26:52.342Z,2.60
2023-05-18T15:29:20.332Z,1.93
2023-05-18T15:31:51.072Z,2.23
2023-05-18T15:34:19.307Z,2.20
2023-05-18T15:36:47.326Z,2.93
2023-05-18T15:39:15.314Z,3.03
2023-05-18T15:41:43.310Z,2.30
2023-05-18T15:44:12.640Z,2.03
2023-05-18T15:46:40.618Z,3.20
2023-05-18T15:49:08.615Z,2.70
2023-05-18T15:51:36.540Z,2.20
2023-05-18T15:54:04.670Z,2.03
2023-05-18T15:56:32.657Z,2.10
2023-05-18T15:59:00.637Z,2.50
2023-05-18T16:01:30.026Z,2.03
2023-05-18T16:03:58.107Z,2.57
2023-05-18T16:06:26.114Z,2.20
2023-05-18T16:08:54.107Z,2.40
2023-05-18T16:11:22.476Z,1.67
2023-05-18T16:13:53.809Z,2.27
2023-05-18T16:16:23.400Z,1.77
2023-05-18T16:18:52.827Z,3.33
2023-05-18T16:21:20.868Z,1.80
2023-05-18T16:23:48.888Z,2.80
2023-05-18T16:26:16.844Z,2.10
2023-05-18T16:28:44.838Z,3.10
2023-05-18T16:31:12.920Z,1.60
2023-05-18T16:33:41.086Z,2.70
2023-05-18T16:36:11.499Z,2.70
2023-05-18T16:38:39.503Z,2.70
2023-05-18T16:41:07.485Z,1.53
2023-05-18T16:43:35.557Z,2.13
2023-05-18T16:46:03.613Z,1.70
2023-05-18T16:48:31.567Z,1.50
2023-05-18T16:50:59.512Z,1.83
2023-05-18T16:53:28.890Z,2.00
2023-05-18T16:55:56.851Z,1.60
2023-05-18T16:58:24.796Z,1.90
2023-05-18T17:00:53.360Z,1.30
2023-05-18T17:03:21.754Z,1.57
2023-05-18T17:05:49.845Z,1.37
2023-05-18T17:08:17.821Z,1.43
2023-05-18T17:10:47.252Z,1.80
2023-05-18T17:13:15.193Z,1.60
2023-05-18T17:15:43.168Z,1.97
2023-05-18T17:18:11.350Z,2.70
2023-05-18T17:20:39.345Z,1.17
2023-05-18T17:23:07.323Z,1.53
2023-05-18T17:25:35.339Z,1.93
2023-05-18T17:28:04.660Z,1.80
2023-05-18T17:30:32.901Z,1.80
2023-05-18T17:33:01.140Z,2.40
2023-05-18T17:35:29.132Z,1.37
2023-05-18T17:37:57.695Z,1.20
2023-05-18T17:40:25.864Z,1.50
2023-05-18T17:42:53.866Z,1.57
2023-05-18T17:45:23.217Z,1.77
2023-05-18T17:47:51.173Z,1.37
2023-05-18T17:50:19.166Z,1.50
2023-05-18T17:52:47.133Z,1.70
2023-05-18T17:55:15.151Z,1.80
2023-05-18T17:57:45.320Z,1.93
2023-05-18T18:00:15.581Z,1.17
2023-05-18T18:02:44.986Z,1.50
2023-05-18T18:05:13.096Z,1.80
2023-05-18T18:07:41.074Z,1.63
2023-05-18T18:10:09.949Z,2.10
2023-05-18T18:12:37.926Z,1.97
2023-05-18T18:15:06.432Z,2.07
2023-05-18T18:17:34.645Z,1.50
2023-05-18T18:20:05.718Z,1.97
2023-05-18T18:22:35.696Z,1.87
2023-05-18T18:25:04.032Z,1.77
2023-05-18T18:27:32.456Z,1.70
2023-05-18T18:30:00.392Z,1.93
2023-05-18T18:32:28.480Z,1.57
2023-05-18T18:34:56.515Z,1.80
2023-05-18T18:37:25.840Z,3.17
2023-05-18T18:39:53.843Z,2.10
2023-05-18T18:42:21.855Z,2.00
2023-05-18T18:44:53.085Z,1.90
2023-05-18T18:47:21.113Z,2.20
2023-05-18T18:49:49.177Z,1.93
2023-05-18T18:52:17.127Z,2.33
2023-05-18T18:54:46.478Z,1.67
2023-05-18T18:57:14.426Z,1.93
2023-05-18T18:59:42.359Z,2.10
2023-05-18T19:02:10.395Z,2.20
2023-05-18T19:04:38.367Z,2.23
2023-05-18T19:07:06.671Z,2.17
2023-05-18T19:09:36.251Z,2.30
2023-05-18T19:12:06.475Z,1.83
2023-05-18T19:14:34.523Z,2.27
2023-05-18T19:17:02.479Z,2.30
2023-05-18T19:19:32.587Z,2.27
2023-05-18T19:22:00.565Z,1.60
2023-05-18T19:24:28.624Z,2.97
2023-05-18T19:26:56.835Z,2.00
2023-05-18T19:29:26.236Z,2.90
2023-05-18T19:31:54.851Z,1.63
2023-05-18T19:34:22.882Z,2.20
2023-05-18T19:36:50.951Z,1.77
2023-05-18T19:39:18.959Z,1.50
2023-05-18T19:41:47.111Z,1.67
2023-05-18T19:44:15.556Z,1.87
2023-05-18T19:46:44.870Z,1.93
2023-05-18T19:49:12.836Z,1.97
2023-05-18T19:51:40.820Z,2.40
2023-05-18T19:54:08.795Z,1.70
2023-05-18T19:56:37.028Z,1.90
2023-05-18T19:59:05.026Z,1.70
2023-05-18T20:01:33.824Z,1.93
2023-05-18T20:04:03.407Z,2.13
2023-05-18T20:06:31.921Z,2.30
2023-05-18T20:09:00.728Z,2.10
2023-05-18T20:11:28.696Z,2.43
2023-05-18T20:13:56.767Z,2.17
2023-05-18T20:16:26.405Z,1.90
2023-05-18T20:18:54.558Z,2.17
2023-05-18T20:21:23.901Z,2.00
2023-05-18T20:23:51.848Z,2.40
2023-05-18T20:26:19.948Z,1.63
2023-05-18T20:28:47.962Z,3.10
2023-05-18T20:31:16.000Z,2.53
2023-05-18T20:33:44.587Z,2.40
2023-05-18T20:36:13.608Z,2.60
2023-05-18T20:38:44.256Z,2.30
2023-05-18T20:41:12.273Z,2.17
2023-05-18T20:43:40.254Z,2.53
2023-05-18T20:46:08.286Z,3.03
2023-05-18T20:48:37.207Z,2.33
2023-05-18T20:51:05.417Z,2.93
2023-05-18T20:53:33.399Z,2.97
2023-05-18T20:56:02.804Z,3.40
2023-05-18T20:58:34.150Z,3.10
2023-05-18T21:01:07.271Z,3.30
2023-05-18T21:03:35.573Z,2.70
2023-05-18T21:06:04.432Z,2.40
2023-05-18T21:08:32.552Z,2.70
2023-05-18T21:11:00.492Z,3.13
2023-05-18T21:36:06.423Z,2.47
2023-05-18T21:38:34.381Z,3.30
2023-05-18T21:41:02.380Z,3.13
2023-05-18T21:43:30.332Z,3.00
2023-05-18T21:45:58.445Z,2.93
2023-05-18T21:48:26.498Z,2.17
2023-05-18T21:50:54.427Z,2.50
2023-05-18T21:53:23.737Z,2.93
2023-05-18T21:55:51.730Z,3.20
2023-05-18T21:58:20.824Z,2.40
2023-05-18T22:00:48.837Z,2.50
2023-05-18T22:03:16.776Z,3.03
2023-05-18T22:05:44.871Z,2.70
2023-05-18T22:08:12.880Z,2.67
2023-05-18T22:10:42.285Z,2.57
2023-05-18T22:13:10.738Z,2.97
2023-05-18T22:15:40.265Z,3.10
2023-05-18T22:18:08.272Z,3.20
2023-05-18T22:20:36.568Z,3.10
2023-05-18T22:23:04.573Z,3.33
2023-05-18T22:25:32.640Z,3.20
2023-05-18T22:28:02.525Z,3.33
2023-05-18T22:30:31.918Z,2.67
2023-05-18T22:33:00.118Z,2.50
2023-05-18T22:35:28.200Z,3.43
2023-05-18T22:37:56.431Z,3.07
2023-05-18T22:40:24.507Z,2.40
2023-05-18T22:42:55.013Z,2.80
2023-05-18T22:45:24.432Z,3.20
2023-05-18T22:47:52.824Z,3.00
2023-05-18T22:50:21.258Z,3.13
2023-05-18T22:52:49.249Z,3.63
2023-05-18T22:55:17.237Z,3.10
2023-05-18T22:57:45.497Z,3.70
2023-05-18T23:00:15.074Z,2.63
2023-05-18T23:02:44.519Z,3.27
2023-05-18T23:05:13.496Z,3.10
2023-05-18T23:07:41.891Z,2.90
2023-05-18T23:10:11.268Z,2.40
2023-05-18T23:12:39.659Z,2.63
2023-05-18T23:15:08.983Z,2.90
2023-05-18T23:17:39.092Z,2.67
2023-05-18T23:20:11.487Z,3.00
2023-05-18T23:22:39.474Z,3.10
2023-05-18T23:25:08.996Z,3.03
2023-05-18T23:27:37.065Z,2.60
2023-05-18T23:30:05.544Z,2.60
2023-05-18T23:32:34.062Z,3.63
2023-05-18T23:35:04.476Z,2.73
2023-05-18T23:37:33.902Z,3.23
2023-05-18T23:40:02.635Z,3.73
2023-05-18T23:42:31.297Z,2.90
2023-05-18T23:44:59.943Z,3.30
2023-05-18T23:47:28.394Z,2.63
2023-05-18T23:49:57.123Z,3.00
2023-05-18T23:52:25.327Z,3.00
2023-05-18T23:54:55.896Z,3.17
2023-05-18T23:57:25.069Z,3.07
2023-05-18T23:59:53.568Z,2.80
